Time;durP1;ratioP1;P1;durP2;ratioP2;P2;SDS_P1;SDS_P2;PMS_P1;PMS_P2;Temp;Humidity;BMP_temperature;BMP_pressure;BME280_temperature;BME280_humidity;BME280_pressure;Samples;Min_cycle;Max_cycle;Signal;HPM_P1;HPM_P2
2021/01/23 00:00:06;;;;;;;6.07;3.97;;;;;;;2.10;79.12;98438.47;5072111;28;20414;-82
2021/01/23 00:02:32;;;;;;;8.63;3.63;;;;;;;2.10;78.12;98441.88;5071920;28;20024;-81
2021/01/23 00:04:57;;;;;;;6.38;3.45;;;;;;;2.29;78.11;98436.34;5072010;28;20031;-81
2021/01/23 00:07:22;;;;;;;6.07;3.22;;;;;;;2.32;78.36;98425.75;5070864;28;20122;-81
2021/01/23 00:09:48;;;;;;;12.43;4.10;;;;;;;2.43;78.97;98427.66;5071535;28;20029;-81
2021/01/23 00:12:13;;;;;;;10.23;3.67;;;;;;;2.37;78.88;98426.31;5071943;28;20032;-81
2021/01/23 00:14:38;;;;;;;8.05;2.90;;;;;;;2.53;78.50;98414.94;5071689;28;20025;-81
2021/01/23 00:17:03;;;;;;;4.25;2.55;;;;;;;2.46;77.38;98408.50;5071652;28;20028;-81
2021/01/23 00:19:29;;;;;;;6.88;2.92;;;;;;;2.43;79.07;98393.13;5071934;28;20020;-81
2021/01/23 00:21:54;;;;;;;5.78;2.63;;;;;;;2.52;78.18;98392.53;5072159;28;20047;-81
2021/01/23 00:24:20;;;;;;;12.63;3.58;;;;;;;2.45;78.25;98383.50;5071822;28;20112;-81
2021/01/23 00:26:45;;;;;;;9.23;6.13;;;;;;;2.56;78.44;98401.75;5071208;28;20475;-81
2021/01/23 00:29:15;;;;;;;9.40;3.10;;;;;;;2.57;77.64;98398.25;5071787;28;20041;-81
2021/01/23 00:31:41;;;;;;;8.35;3.30;;;;;;;2.54;78.49;98390.66;5071836;28;20058;-81
2021/01/23 00:34:07;;;;;;;6.70;2.90;;;;;;;2.55;78.31;98393.16;5072296;28;20070;-81
2021/01/23 00:36:33;;;;;;;4.43;2.30;;;;;;;2.56;78.18;98394.81;5071476;28;20486;-81
2021/01/23 00:38:59;;;;;;;5.05;2.80;;;;;;;2.48;78.02;98380.72;5071972;28;20047;-82
2021/01/23 00:41:26;;;;;;;5.47;2.78;;;;;;;2.43;77.10;98398.31;5071754;28;20029;-81
2021/01/23 00:43:54;;;;;;;14.05;3.28;;;;;;;2.42;78.36;98396.69;5071731;28;20024;-81
2021/01/23 00:46:21;;;;;;;11.48;3.30;;;;;;;2.41;79.06;98411.41;5071230;28;20036;-81
2021/01/23 00:48:46;;;;;;;11.75;3.40;;;;;;;2.36;79.30;98397.91;5071648;28;20035;-81
2021/01/23 00:51:12;;;;;;;13.20;3.80;;;;;;;2.41;79.13;98406.22;5071613;28;20032;-81
2021/01/23 00:53:37;;;;;;;9.52;3.53;;;;;;;2.43;79.41;98403.50;5071771;28;20025;-81
2021/01/23 00:56:03;;;;;;;5.13;2.97;;;;;;;2.47;77.89;98402.38;5071207;28;20029;-82
2021/01/23 00:58:28;;;;;;;10.30;3.50;;;;;;;2.47;78.34;98398.03;5071684;28;20040;-82
2021/01/23 01:00:53;;;;;;;9.63;3.50;;;;;;;2.51;79.00;98390.88;5071555;28;20021;-81
2021/01/23 01:03:19;;;;;;;12.40;3.38;;;;;;;2.65;76.45;98393.38;5071485;28;20028;-81
2021/01/23 01:05:44;;;;;;;8.68;3.13;;;;;;;2.76;77.23;98385.72;5071470;28;20130;-81
2021/01/23 01:08:09;;;;;;;8.10;3.28;;;;;;;2.82;76.82;98393.97;5053784;28;20031;-81
2021/01/23 01:10:35;;;;;;;8.68;3.15;;;;;;;2.84;76.69;98397.28;5070477;28;20108;-81
2021/01/23 01:13:00;;;;;;;6.65;2.92;;;;;;;2.75;75.85;98394.41;5071506;28;20035;-81
2021/01/23 01:15:25;;;;;;;10.27;3.17;;;;;;;2.20;75.68;98399.88;5071354;28;20021;-81
2021/01/23 01:17:51;;;;;;;12.45;3.38;;;;;;;2.25;76.74;98395.19;5071263;28;20059;-81
2021/01/23 01:20:16;;;;;;;10.52;3.45;;;;;;;2.38;76.23;98407.22;5071313;28;20040;-81
2021/01/23 01:22:41;;;;;;;14.60;3.30;;;;;;;2.47;77.15;98399.78;5071366;28;20025;-80
2021/01/23 01:25:07;;;;;;;10.68;3.58;;;;;;;2.55;76.27;98400.13;5071412;28;20032;-81
2021/01/23 01:27:32;;;;;;;13.40;3.90;;;;;;;2.62;76.53;98398.75;5071495;28;20025;-81
2021/01/23 01:29:58;;;;;;;12.25;3.90;;;;;;;2.66;76.47;98395.00;5071275;28;20090;-81
2021/01/23 01:32:23;;;;;;;10.30;4.82;;;;;;;2.74;76.63;98397.91;5071193;28;20025;-81
2021/01/23 01:34:48;;;;;;;9.98;4.50;;;;;;;2.79;76.17;98397.63;5071162;28;20287;-81
2021/01/23 01:37:14;;;;;;;9.07;4.00;;;;;;;2.99;74.51;98401.44;5071207;28;20028;-81
2021/01/23 01:39:39;;;;;;;10.20;3.30;;;;;;;2.95;74.15;98400.00;5074069;28;20029;-81
2021/01/23 01:42:05;;;;;;;10.98;4.40;;;;;;;2.52;74.95;98403.72;5074870;28;20395;-81
2021/01/23 01:44:30;;;;;;;12.60;4.80;;;;;;;2.63;75.88;98399.59;5074980;28;20024;-81
2021/01/23 01:46:59;;;;;;;10.55;4.32;;;;;;;2.89;76.06;98408.19;5074745;28;20065;-81
2021/01/23 01:49:24;;;;;;;10.48;5.75;;;;;;;2.90;75.10;98402.06;5074705;28;20029;-81
2021/01/23 01:51:53;;;;;;;9.10;4.68;;;;;;;3.00;75.93;98407.44;5074673;28;20078;-81
2021/01/23 01:54:20;;;;;;;14.60;5.03;;;;;;;3.00;75.20;98405.66;5074790;28;20075;-80
2021/01/23 01:56:45;;;;;;;9.35;5.75;;;;;;;2.95;74.36;98403.41;5074733;28;20122;-81
2021/01/23 01:59:11;;;;;;;14.05;5.80;;;;;;;3.04;75.50;98399.38;5074614;28;20025;-81
2021/01/23 02:01:36;;;;;;;20.55;8.23;;;;;;;2.67;76.04;98399.28;5056908;28;20470;-81
2021/01/23 02:04:06;;;;;;;14.40;7.05;;;;;;;2.97;75.53;98393.75;5074574;28;20047;-81
2021/01/23 02:06:41;;;;;;;23.33;8.60;;;;;;;3.15;75.78;98399.44;5074766;28;20056;-81
2021/01/23 02:09:20;;;;;;;18.00;7.20;;;;;;;3.15;75.15;98396.84;5075141;28;20485;-81
2021/01/23 02:12:03;;;;;;;16.08;6.18;;;;;;;2.97;73.80;98405.91;5074412;28;20410;-81
2021/01/23 02:14:31;;;;;;;15.50;7.70;;;;;;;3.08;75.72;98400.81;5074336;28;20024;-81
2021/01/23 02:17:01;;;;;;;13.95;7.32;;;;;;;3.19;74.83;98397.47;5074556;28;20040;-80
2021/01/23 02:19:27;;;;;;;13.05;6.43;;;;;;;3.05;74.40;98401.00;5074322;28;20051;-81
2021/01/23 02:22:26;;;;;;;25.02;7.22;;;;;;;3.07;74.58;98399.13;5074339;28;20364;-80
2021/01/23 02:24:52;;;;;;;14.52;6.85;;;;;;;3.08;75.39;98394.78;5074353;28;20104;-81
2021/01/23 02:27:34;;;;;;;21.13;8.70;;;;;;;2.82;74.82;98393.97;5074173;28;20021;-81
2021/01/23 02:30:17;;;;;;;13.77;6.80;;;;;;;3.02;75.01;98393.47;5073974;28;20459;-80
2021/01/23 02:32:45;;;;;;;17.77;7.68;;;;;;;2.96;75.03;98384.34;5073849;28;20563;-81
2021/01/23 02:35:11;;;;;;;17.58;7.20;;;;;;;2.96;74.68;98386.09;5073943;28;20135;-81
2021/01/23 02:37:40;;;;;;;14.45;6.45;;;;;;;2.89;74.53;98385.69;5074090;28;20018;-80
2021/01/23 02:40:06;;;;;;;19.50;8.23;;;;;;;2.81;75.19;98382.78;5073884;28;20043;-80
2021/01/23 02:42:32;;;;;;;12.18;5.80;;;;;;;2.73;73.53;98383.31;5073725;28;20016;-80
2021/01/23 02:44:57;;;;;;;11.63;6.15;;;;;;;2.65;75.50;98385.59;5073817;28;20020;-80
2021/01/23 02:47:22;;;;;;;15.98;8.10;;;;;;;2.46;75.28;98374.81;5073749;28;20020;-80
2021/01/23 02:49:48;;;;;;;16.50;6.55;;;;;;;2.71;75.79;98380.00;5073384;28;20027;-80
2021/01/23 02:52:27;;;;;;;10.52;6.03;;;;;;;2.65;74.99;98377.00;5073493;28;20033;-80
2021/01/23 02:55:03;;;;;;;14.93;5.65;;;;;;;2.84;75.67;98374.78;5073542;28;20415;-80
2021/01/23 02:57:29;;;;;;;10.85;5.57;;;;;;;2.74;74.38;98372.00;5073897;28;20021;-80
2021/01/23 02:59:59;;;;;;;10.63;4.85;;;;;;;2.85;75.50;98373.88;5073367;28;20047;-80
2021/01/23 03:02:25;;;;;;;14.98;5.60;;;;;;;2.89;75.39;98375.31;5073545;28;20157;-80
2021/01/23 03:04:52;;;;;;;11.13;5.50;;;;;;;2.91;74.72;98363.06;5073445;28;20042;-80
2021/01/23 03:07:18;;;;;;;29.33;6.00;;;;;;;2.96;75.72;98367.94;5071927;28;20056;-80
2021/01/23 03:09:44;;;;;;;15.38;4.95;;;;;;;2.98;75.08;98363.47;5068593;28;20061;-80
2021/01/23 03:12:10;;;;;;;8.20;4.88;;;;;;;3.00;74.76;98361.59;5073065;28;20036;-80
2021/01/23 03:14:36;;;;;;;10.77;5.30;;;;;;;2.93;75.91;98370.75;5073120;28;20040;-80
2021/01/23 03:17:03;;;;;;;12.63;4.53;;;;;;;2.74;75.05;98369.41;5072682;28;20029;-80
2021/01/23 03:19:29;;;;;;;13.18;4.35;;;;;;;2.62;75.08;98362.47;5072905;28;20429;-80
2021/01/23 03:21:54;;;;;;;14.50;4.75;;;;;;;2.09;74.74;98356.53;5072982;28;20067;-80
2021/01/23 03:24:20;;;;;;;12.98;4.15;;;;;;;1.97;74.86;98359.03;5072200;28;20020;-80
2021/01/23 03:26:46;;;;;;;11.90;4.10;;;;;;;2.00;76.99;98357.16;5072900;28;20090;-80
2021/01/23 03:29:12;;;;;;;9.48;3.67;;;;;;;2.30;76.67;98359.47;5072583;28;20050;-80
2021/01/23 03:31:38;;;;;;;10.80;3.88;;;;;;;2.43;75.79;98367.25;5073032;28;20024;-80
2021/01/23 03:34:04;;;;;;;12.00;3.63;;;;;;;2.49;75.55;98357.31;5072815;28;20372;-80
2021/01/23 03:36:30;;;;;;;16.10;6.63;;;;;;;2.56;76.11;98358.53;5072655;28;20146;-80
2021/01/23 03:38:56;;;;;;;12.68;3.83;;;;;;;2.43;75.74;98360.31;5071610;28;20024;-80
2021/01/23 03:41:21;;;;;;;7.70;3.50;;;;;;;2.58;76.01;98358.44;5072520;28;20031;-79
2021/01/23 03:43:47;;;;;;;8.68;3.70;;;;;;;2.69;75.93;98352.53;5072497;28;20029;-80
2021/01/23 03:46:13;;;;;;;12.48;3.83;;;;;;;2.76;75.53;98343.41;5072625;28;20028;-80
2021/01/23 03:48:39;;;;;;;10.07;3.13;;;;;;;2.82;75.58;98342.97;5072468;28;20046;-80
2021/01/23 03:51:05;;;;;;;11.82;4.57;;;;;;;2.62;75.46;98346.94;5072088;28;20066;-80
2021/01/23 03:53:31;;;;;;;9.48;3.97;;;;;;;2.55;75.31;98343.13;5071571;28;20415;-80
2021/01/23 03:55:56;;;;;;;7.07;3.95;;;;;;;2.60;75.44;98335.84;5072718;28;20036;-80
2021/01/23 03:58:21;;;;;;;6.63;3.45;;;;;;;2.79;75.89;98343.19;5071916;28;20390;-79
2021/01/23 04:00:47;;;;;;;6.20;3.15;;;;;;;2.76;74.90;98338.22;5071656;28;20064;-80
2021/01/23 04:03:13;;;;;;;9.32;3.50;;;;;;;2.69;74.37;98347.34;5072272;28;20077;-80
2021/01/23 04:05:38;;;;;;;12.93;3.53;;;;;;;2.48;74.71;98347.03;5072144;28;20032;-80
2021/01/23 04:08:04;;;;;;;12.32;3.92;;;;;;;2.28;74.85;98332.84;5071302;28;20063;-80
2021/01/23 04:10:29;;;;;;;7.25;3.33;;;;;;;2.29;76.33;98350.03;5072618;28;20382;-81
2021/01/23 04:12:55;;;;;;;16.33;3.60;;;;;;;1.90;77.25;98346.59;5071812;28;20466;-80
2021/01/23 04:15:21;;;;;;;22.77;3.72;;;;;;;2.11;77.30;98350.34;5071922;28;20478;-80
2021/01/23 04:17:46;;;;;;;19.67;3.70;;;;;;;2.19;77.60;98349.81;5071814;28;20027;-80
2021/01/23 04:20:12;;;;;;;12.00;3.25;;;;;;;2.07;75.77;98355.81;5071923;28;20029;-80
2021/01/23 04:22:38;;;;;;;11.10;4.70;;;;;;;2.18;77.47;98353.34;5071325;28;20025;-80
2021/01/23 04:25:04;;;;;;;8.15;3.13;;;;;;;2.33;77.39;98352.34;5071847;28;20116;-81
2021/01/23 04:27:30;;;;;;;10.30;3.45;;;;;;;2.35;75.91;98339.25;5071434;28;20021;-80
2021/01/23 04:29:55;;;;;;;7.20;2.80;;;;;;;2.43;76.83;98339.59;5071635;28;20429;-80
2021/01/23 04:32:21;;;;;;;7.78;3.65;;;;;;;2.49;77.00;98335.75;5071846;28;20419;-80
2021/01/23 04:34:46;;;;;;;7.97;3.50;;;;;;;2.44;76.46;98330.06;5071948;28;20025;-80
2021/01/23 04:37:11;;;;;;;10.63;3.25;;;;;;;2.49;76.03;98333.16;5070779;28;20040;-81
2021/01/23 04:39:37;;;;;;;12.38;2.58;;;;;;;2.34;75.59;98328.06;5071391;28;20413;-80
2021/01/23 04:42:09;;;;;;;14.18;3.85;;;;;;;2.25;75.96;98323.53;5071251;28;20028;-80
2021/01/23 04:44:36;;;;;;;10.90;2.85;;;;;;;2.37;76.18;98327.88;5068055;28;20422;-81
2021/01/23 04:47:03;;;;;;;6.60;2.40;;;;;;;2.33;75.78;98325.59;5071376;28;20442;-79
2021/01/23 04:49:30;;;;;;;7.38;3.22;;;;;;;2.02;76.87;98332.00;5071358;28;20100;-79
2021/01/23 04:51:56;;;;;;;13.90;4.78;;;;;;;2.24;76.85;98332.22;5070966;28;20476;-80
2021/01/23 04:54:21;;;;;;;9.32;3.25;;;;;;;2.27;76.67;98336.34;5069541;28;20056;-82
2021/01/23 04:56:50;;;;;;;11.27;2.72;;;;;;;2.39;76.63;98332.97;5070704;28;20138;-79
2021/01/23 04:59:15;;;;;;;8.40;2.45;;;;;;;2.23;75.67;98333.16;5071153;28;20078;-80
2021/01/23 05:01:41;;;;;;;5.57;2.50;;;;;;;2.24;75.96;98337.41;5071728;28;20024;-80
2021/01/23 05:04:06;;;;;;;11.10;2.50;;;;;;;2.32;76.80;98331.72;5071166;28;20035;-80
2021/01/23 05:06:31;;;;;;;6.60;2.63;;;;;;;2.41;77.01;98336.28;5071009;28;20031;-80
2021/01/23 05:08:57;;;;;;;7.95;2.60;;;;;;;2.40;75.80;98331.19;5071300;28;20047;-80
2021/01/23 05:11:43;;;;;;;11.02;2.97;;;;;;;2.34;75.94;98333.25;5071028;28;20021;-81
2021/01/23 05:14:13;;;;;;;7.32;3.63;;;;;;;2.18;77.07;98337.81;5072637;28;20032;-80
2021/01/23 05:16:39;;;;;;;5.88;2.50;;;;;;;2.24;76.56;98327.03;5074772;28;20075;-81
2021/01/23 05:19:05;;;;;;;11.30;2.60;;;;;;;2.27;76.81;98326.00;5076393;28;20494;-80
2021/01/23 05:21:34;;;;;;;11.90;2.55;;;;;;;2.43;76.79;98326.66;5074041;28;20036;-81
2021/01/23 05:24:11;;;;;;;8.50;2.45;;;;;;;2.51;77.56;98332.13;5074760;28;20489;-80
2021/01/23 05:26:38;;;;;;;5.72;2.08;;;;;;;2.50;76.95;98316.69;5074933;28;20028;-80
2021/01/23 05:29:07;;;;;;;7.93;2.10;;;;;;;2.61;75.95;98311.59;5074849;28;20052;-80
2021/01/23 05:31:33;;;;;;;9.45;2.33;;;;;;;2.55;76.25;98309.44;5074974;28;20036;-81
2021/01/23 05:33:58;;;;;;;7.28;2.53;;;;;;;2.57;75.75;98315.34;5056667;28;20181;-80
2021/01/23 05:36:24;;;;;;;9.18;2.22;;;;;;;2.57;76.70;98308.41;5074487;28;20028;-80
2021/01/23 05:38:49;;;;;;;6.45;2.45;;;;;;;2.63;76.80;98301.97;5074166;28;20467;-80
2021/01/23 05:41:16;;;;;;;5.10;1.60;;;;;;;2.73;77.41;98309.94;5073786;28;20103;-80
2021/01/23 05:43:43;;;;;;;2.72;1.40;;;;;;;2.81;77.03;98314.59;5072856;28;20402;-80
2021/01/23 05:46:12;;;;;;;6.68;1.40;;;;;;;2.80;76.60;98315.50;5074566;28;20474;-80
2021/01/23 05:48:50;;;;;;;11.65;2.60;;;;;;;2.85;76.65;98322.03;5074193;28;20067;-80
2021/01/23 05:51:16;;;;;;;4.72;1.52;;;;;;;2.85;76.83;98326.41;5074467;28;20029;-80
2021/01/23 05:53:43;;;;;;;7.78;2.30;;;;;;;2.80;76.79;98328.47;5074034;28;20035;-80
2021/01/23 05:56:08;;;;;;;12.15;3.20;;;;;;;2.80;76.87;98318.09;5074675;28;20028;-80
2021/01/23 05:58:36;;;;;;;8.40;3.42;;;;;;;2.86;76.42;98328.03;5056471;28;20051;-80
2021/01/23 06:01:04;;;;;;;10.68;3.50;;;;;;;2.89;76.21;98328.66;5074507;28;20016;-80
2021/01/23 06:03:40;;;;;;;13.48;3.90;;;;;;;2.95;76.69;98324.81;5074489;28;20036;-80
2021/01/23 06:06:05;;;;;;;8.93;3.33;;;;;;;2.83;75.82;98326.50;5074292;28;20466;-80
2021/01/23 06:08:39;;;;;;;7.18;3.25;;;;;;;2.82;75.53;98332.59;5073442;28;20074;-80
2021/01/23 06:11:25;;;;;;;11.32;3.47;;;;;;;2.45;75.55;98329.97;5074358;28;20028;-80
2021/01/23 06:13:58;;;;;;;5.30;2.90;;;;;;;2.50;75.59;98337.41;5076639;28;20024;-80
2021/01/23 06:16:32;;;;;;;12.20;3.63;;;;;;;2.67;75.68;98338.88;5074225;28;20024;-80
2021/01/23 06:19:07;;;;;;;7.10;2.63;;;;;;;2.69;75.88;98337.81;5073817;28;20029;-81
2021/01/23 06:21:53;;;;;;;6.63;2.40;;;;;;;2.59;75.29;98347.16;5073114;28;20509;-80
2021/01/23 06:24:43;;;;;;;5.88;2.00;;;;;;;2.62;76.52;98346.94;5072588;28;20119;-81
2021/01/23 06:27:09;;;;;;;9.88;2.20;;;;;;;2.60;76.16;98353.16;5073814;28;20024;-80
2021/01/23 06:29:41;;;;;;;6.93;2.20;;;;;;;2.72;76.30;98354.91;5073786;28;20446;-80
2021/01/23 06:32:12;;;;;;;4.57;1.92;;;;;;;2.68;76.27;98356.88;5073862;28;20040;-80
2021/01/23 06:35:00;;;;;;;8.55;1.90;;;;;;;2.63;76.42;98358.97;5073321;28;20024;-80
2021/01/23 06:37:39;;;;;;;6.30;1.98;;;;;;;2.63;76.72;98363.31;5072806;28;20078;-80
2021/01/23 06:40:10;;;;;;;9.27;2.75;;;;;;;2.66;76.75;98363.94;5073871;28;20051;-80
2021/01/23 06:42:40;;;;;;;3.17;1.42;;;;;;;2.64;75.15;98363.19;5074312;28;20029;-80
2021/01/23 06:45:27;;;;;;;7.40;1.90;;;;;;;2.56;76.51;98358.53;5073768;28;20036;-80
2021/01/23 06:47:57;;;;;;;8.63;1.80;;;;;;;2.55;76.74;98371.63;5073898;28;20052;-81
2021/01/23 06:50:31;;;;;;;9.05;2.58;;;;;;;2.31;76.39;98372.31;5074622;28;20090;-81
2021/01/23 06:52:58;;;;;;;7.25;2.35;;;;;;;2.57;76.14;98375.75;5073577;28;20441;-81
2021/01/23 06:55:54;;;;;;;9.13;2.22;;;;;;;2.56;76.02;98374.06;5074249;28;20493;-81
2021/01/23 06:58:21;;;;;;;5.93;1.95;;;;;;;2.52;76.28;98367.44;5073655;28;20037;-81
2021/01/23 07:00:48;;;;;;;7.25;2.40;;;;;;;2.47;75.54;98379.06;5073862;28;20031;-81
2021/01/23 07:03:14;;;;;;;4.80;2.20;;;;;;;2.49;76.23;98374.59;5053739;28;20047;-81
2021/01/23 07:05:46;;;;;;;6.78;2.20;;;;;;;2.49;75.83;98372.00;5054179;28;20025;-81
2021/01/23 07:08:33;;;;;;;8.88;2.33;;;;;;;2.18;77.38;98379.25;5064599;28;20107;-81
2021/01/23 07:11:16;;;;;;;6.68;2.58;;;;;;;2.08;78.49;98391.13;5075215;28;20059;-80
2021/01/23 07:14:08;;;;;;;12.20;3.30;;;;;;;2.63;76.66;98389.25;5076074;28;20024;-81
2021/01/23 07:16:36;;;;;;;14.82;4.40;;;;;;;2.63;76.06;98390.06;5076245;28;20016;-81
2021/01/23 07:19:07;;;;;;;10.40;3.85;;;;;;;2.51;74.85;98401.25;5073906;28;20103;-81
2021/01/23 07:21:34;;;;;;;13.15;4.30;;;;;;;2.26;76.08;98402.88;5073090;28;20024;-81
2021/01/23 07:24:01;;;;;;;8.20;3.17;;;;;;;2.30;75.84;98409.50;5073092;28;20070;-81
2021/01/23 07:26:26;;;;;;;6.03;3.35;;;;;;;2.27;76.25;98404.53;5072916;28;20025;-81
2021/01/23 07:28:56;;;;;;;14.55;3.80;;;;;;;2.33;74.99;98414.50;5072749;28;20360;-81
2021/01/23 07:31:29;;;;;;;18.58;4.65;;;;;;;2.30;75.44;98413.84;5055092;28;20466;-81
2021/01/23 07:33:57;;;;;;;17.25;5.70;;;;;;;2.27;76.21;98412.31;5073025;28;20039;-81
2021/01/23 07:36:33;;;;;;;16.77;6.28;;;;;;;2.46;76.44;98424.84;5072014;28;20070;-81
2021/01/23 07:39:12;;;;;;;18.15;8.55;;;;;;;2.49;75.81;98421.22;5072622;28;20086;-81
2021/01/23 07:41:41;;;;;;;16.10;8.30;;;;;;;2.62;76.07;98414.28;5072776;28;20494;-81
2021/01/23 07:44:10;;;;;;;23.95;10.00;;;;;;;2.63;76.57;98421.16;5072628;28;20024;-81
2021/01/23 07:46:41;;;;;;;25.40;10.63;;;;;;;2.72;76.35;98415.34;5072585;28;20020;-81
2021/01/23 07:49:09;;;;;;;37.33;11.60;;;;;;;2.78;76.31;98414.09;5072182;28;20021;-81
2021/01/23 07:51:34;;;;;;;29.33;12.50;;;;;;;2.81;76.85;98418.25;5072268;28;20338;-82
2021/01/23 07:54:05;;;;;;;67.20;13.13;;;;;;;2.74;77.27;98426.41;5072443;28;20020;-81
2021/01/23 07:56:30;;;;;;;30.85;12.68;;;;;;;3.03;77.42;98428.00;5072337;28;20074;-82
2021/01/23 07:58:55;;;;;;;52.10;12.88;;;;;;;3.11;76.83;98426.50;5072348;28;20020;-81
2021/01/23 08:01:21;;;;;;;71.40;12.65;;;;;;;3.23;76.84;98427.44;5072365;28;20508;-82
2021/01/23 08:03:46;;;;;;;51.55;12.65;;;;;;;3.04;77.64;98429.63;5072235;28;20029;-81
2021/01/23 08:06:25;;;;;;;57.50;13.73;;;;;;;3.15;77.07;98429.72;5072170;28;20035;-82
2021/01/23 08:08:52;;;;;;;31.63;12.43;;;;;;;3.22;77.46;98432.72;5072464;28;20548;-80
2021/01/23 08:11:35;;;;;;;37.13;13.82;;;;;;;3.66;76.05;98431.38;5072021;28;20032;-80
2021/01/23 08:14:27;;;;;;;43.03;14.18;;;;;;;3.84;75.93;98440.44;5072130;28;20496;-80
2021/01/23 08:16:56;;;;;;;28.38;12.88;;;;;;;3.90;75.42;98440.00;5067081;28;20553;-80
2021/01/23 08:19:22;;;;;;;78.40;17.58;;;;;;;3.54;77.00;98439.09;5071346;28;20035;-80
2021/01/23 08:22:04;;;;;;;37.80;14.50;;;;;;;3.93;75.18;98446.72;5071815;28;20417;-80
2021/01/23 08:24:30;;;;;;;35.90;14.38;;;;;;;3.86;75.77;98448.13;5070868;28;20021;-80
2021/01/23 08:27:14;;;;;;;70.53;15.90;;;;;;;3.76;76.71;98456.56;5067955;28;20021;-78
2021/01/23 08:29:47;;;;;;;40.22;13.63;;;;;;;3.92;75.36;98448.50;5068159;28;20375;-79
2021/01/23 08:32:13;;;;;;;191.52;17.70;;;;;;;3.79;76.46;98447.72;5071363;28;20116;-79
2021/01/23 08:34:39;;;;;;;37.92;13.80;;;;;;;3.87;76.87;98450.63;5071551;28;20111;-80
2021/01/23 08:37:04;;;;;;;27.77;13.68;;;;;;;3.74;77.54;98445.47;5071681;28;20032;-79
2021/01/23 08:39:44;;;;;;;28.67;13.18;;;;;;;3.68;78.01;98445.09;5070933;28;20028;-79
2021/01/23 08:42:09;;;;;;;44.30;13.73;;;;;;;3.48;77.57;98449.09;5071615;28;20085;-79
2021/01/23 08:44:35;;;;;;;38.45;12.07;;;;;;;3.88;76.38;98443.66;5071842;28;20029;-79
2021/01/23 08:47:02;;;;;;;112.43;15.65;;;;;;;3.97;76.89;98445.59;5071278;28;20060;-79
2021/01/23 08:49:28;;;;;;;49.50;12.00;;;;;;;3.98;76.80;98447.25;5071150;28;20033;-80
2021/01/23 08:51:53;;;;;;;22.30;11.07;;;;;;;4.02;76.94;98425.31;5071507;28;20070;-80
2021/01/23 08:54:19;;;;;;;20.40;10.95;;;;;;;4.14;76.76;98444.34;5070830;28;20052;-81
2021/01/23 08:56:44;;;;;;;54.58;15.57;;;;;;;4.12;75.51;98449.66;5071585;28;20051;-79
2021/01/23 08:59:10;;;;;;;26.42;10.45;;;;;;;4.08;76.40;98443.03;5071036;28;20034;-80
2021/01/23 09:01:35;;;;;;;39.65;10.73;;;;;;;4.26;75.22;98451.25;5071036;28;20032;-81
2021/01/23 09:04:00;;;;;;;51.35;10.35;;;;;;;4.16;74.63;98458.88;5071286;28;20035;-82
2021/01/23 09:06:26;;;;;;;32.42;11.40;;;;;;;4.24;75.94;98463.53;5071241;28;20056;-81
2021/01/23 09:08:51;;;;;;;51.28;11.27;;;;;;;3.97;76.18;98469.78;5071706;28;20031;-81
2021/01/23 09:11:16;;;;;;;22.50;11.55;;;;;;;3.87;77.90;98473.13;5070373;28;20024;-81
2021/01/23 09:13:42;;;;;;;171.70;14.73;;;;;;;3.40;78.42;98469.50;5071383;28;20025;-82
2021/01/23 09:16:07;;;;;;;37.75;10.43;;;;;;;3.88;76.65;98480.81;5071041;28;20035;-82
2021/01/23 09:18:33;;;;;;;69.50;11.15;;;;;;;3.85;77.06;98475.88;5070416;28;20494;-82
2021/01/23 09:20:59;;;;;;;266.20;17.35;;;;;;;3.53;77.74;98478.94;5071651;28;20022;-80
2021/01/23 09:23:25;;;;;;;84.60;10.93;;;;;;;3.54;78.72;98479.78;5071663;28;20032;-80
2021/01/23 09:25:50;;;;;;;41.22;11.20;;;;;;;3.72;77.30;98488.88;5069554;28;20470;-80
2021/01/23 09:28:15;;;;;;;58.85;10.55;;;;;;;3.76;77.46;98494.69;5070988;28;20016;-80
2021/01/23 09:30:41;;;;;;;164.40;13.63;;;;;;;3.65;77.31;98490.22;5070883;28;20433;-80
2021/01/23 09:33:06;;;;;;;25.08;10.77;;;;;;;3.78;78.00;98487.59;5071215;28;20024;-80
2021/01/23 09:35:31;;;;;;;21.13;9.00;;;;;;;3.89;77.35;98479.91;5070903;28;20034;-81
2021/01/23 09:37:57;;;;;;;31.48;9.98;;;;;;;4.03;77.15;98497.09;5070841;28;20060;-80
2021/01/23 09:40:22;;;;;;;21.27;10.10;;;;;;;4.11;76.85;98504.34;5052483;28;20051;-80
2021/01/23 09:42:48;;;;;;;39.10;10.63;;;;;;;4.10;76.50;98498.28;5070926;28;20455;-80
2021/01/23 09:45:13;;;;;;;33.78;10.10;;;;;;;3.83;76.88;98501.09;5070712;28;20029;-80
2021/01/23 09:47:39;;;;;;;71.28;10.48;;;;;;;3.59;77.30;98501.03;5071075;28;20561;-81
2021/01/23 09:50:05;;;;;;;15.75;8.50;;;;;;;3.78;78.37;98501.41;5070503;28;20032;-82
2021/01/23 09:52:30;;;;;;;28.88;10.10;;;;;;;4.00;77.98;98497.28;5051225;28;20032;-82
2021/01/23 09:54:56;;;;;;;19.70;10.07;;;;;;;4.07;76.81;98498.53;5071017;28;20037;-81
2021/01/23 09:57:21;;;;;;;23.23;10.38;;;;;;;3.87;78.07;98497.34;5068965;28;20029;-81
2021/01/23 09:59:46;;;;;;;20.67;9.88;;;;;;;3.76;77.79;98492.09;5072440;28;20089;-81
2021/01/23 10:02:12;;;;;;;19.13;9.20;;;;;;;3.86;77.64;98500.06;5074684;28;20037;-81
2021/01/23 10:04:37;;;;;;;18.50;9.18;;;;;;;3.94;77.95;98495.97;5074257;28;20032;-81
2021/01/23 10:07:02;;;;;;;50.30;10.43;;;;;;;3.79;77.14;98499.63;5074803;28;20039;-81
2021/01/23 10:09:28;;;;;;;33.05;9.85;;;;;;;3.60;77.86;98494.09;5075393;28;20035;-81
2021/01/23 10:11:55;;;;;;;51.15;9.85;;;;;;;3.58;78.68;98495.03;5075220;28;20078;-81
2021/01/23 10:14:20;;;;;;;18.10;9.00;;;;;;;3.76;78.57;98502.47;5074738;28;20094;-81
2021/01/23 10:16:45;;;;;;;17.23;9.00;;;;;;;4.07;77.89;98503.72;5074297;28;20056;-81
2021/01/23 10:19:11;;;;;;;22.58;9.02;;;;;;;4.16;78.56;98510.84;5074687;28;20032;-80
2021/01/23 10:21:36;;;;;;;15.73;8.70;;;;;;;4.81;76.18;98507.91;5075175;28;20043;-81
2021/01/23 10:24:02;;;;;;;18.95;8.93;;;;;;;5.15;74.92;98516.59;5074727;28;20482;-81
2021/01/23 10:26:27;;;;;;;16.17;9.02;;;;;;;5.64;73.36;98512.81;5056743;28;20318;-81
2021/01/23 10:28:53;;;;;;;17.88;9.18;;;;;;;6.22;74.24;98522.22;5074460;28;20388;-81
2021/01/23 10:31:19;;;;;;;15.57;8.93;;;;;;;6.71;72.31;98526.06;5074497;28;20025;-81
2021/01/23 10:33:44;;;;;;;16.90;8.70;;;;;;;6.35;71.32;98523.72;5074079;28;20086;-80
2021/01/23 10:36:09;;;;;;;15.95;9.00;;;;;;;6.52;71.29;98539.81;5074391;28;20032;-81
2021/01/23 10:38:35;;;;;;;13.55;8.00;;;;;;;6.23;72.78;98540.34;5074229;28;20031;-81
2021/01/23 10:41:00;;;;;;;24.98;8.43;;;;;;;6.64;71.18;98551.84;5074096;28;20071;-81
2021/01/23 10:43:26;;;;;;;17.70;9.18;;;;;;;7.42;71.01;98551.53;5072840;28;20123;-81
2021/01/23 10:45:51;;;;;;;14.30;8.15;;;;;;;7.69;68.67;98561.41;5073923;28;20025;-81
2021/01/23 10:48:17;;;;;;;16.83;8.60;;;;;;;7.88;67.34;98569.34;5074162;28;20025;-81
2021/01/23 10:50:43;;;;;;;17.17;8.00;;;;;;;7.09;68.66;98575.13;5073355;28;20024;-81
2021/01/23 10:53:08;;;;;;;13.27;8.02;;;;;;;7.39;69.12;98562.25;5073412;28;20425;-82
2021/01/23 10:55:34;;;;;;;19.92;8.48;;;;;;;7.48;66.98;98564.88;5073671;28;20035;-81
2021/01/23 10:57:59;;;;;;;14.15;8.40;;;;;;;8.04;66.03;98560.19;5073804;28;20021;-80
2021/01/23 11:00:24;;;;;;;11.27;7.35;;;;;;;8.70;65.58;98565.66;5073800;28;20033;-82
2021/01/23 11:02:50;;;;;;;10.52;7.38;;;;;;;9.25;66.74;98570.28;5073798;28;20421;-83
2021/01/23 11:05:15;;;;;;;10.88;7.15;;;;;;;9.85;63.00;98561.28;5073755;28;20029;-83
2021/01/23 11:07:41;;;;;;;8.38;6.25;;;;;;;10.38;61.35;98571.09;5074020;28;20150;-82
2021/01/23 11:10:06;;;;;;;14.18;6.47;;;;;;;10.49;59.93;98580.56;5074010;28;20116;-81
2021/01/23 11:12:33;;;;;;;14.05;6.97;;;;;;;10.48;61.05;98581.53;5073116;28;20382;-81
2021/01/23 11:14:58;;;;;;;9.38;5.80;;;;;;;11.23;60.07;98582.03;5073209;28;20386;-82
2021/01/23 11:17:24;;;;;;;9.02;6.50;;;;;;;11.35;59.00;98574.72;5073711;28;20074;-82
2021/01/23 11:19:49;;;;;;;10.90;6.40;;;;;;;11.49;58.67;98579.44;5072969;28;20040;-82
2021/01/23 11:22:14;;;;;;;10.73;6.20;;;;;;;11.73;56.16;98584.97;5072938;28;20574;-82
2021/01/23 11:24:40;;;;;;;7.75;5.82;;;;;;;11.83;57.15;98583.06;5077719;28;20024;-89
2021/01/23 11:27:06;;;;;;;13.38;6.40;;;;;;;12.44;53.97;98583.78;5076693;28;20030;-82
2021/01/23 11:29:31;;;;;;;11.10;6.68;;;;;;;12.94;54.02;98580.25;5073412;28;20393;-88
2021/01/23 11:31:56;;;;;;;11.23;5.88;;;;;;;12.80;54.76;98583.56;5058755;28;20035;-92
2021/01/23 11:34:22;;;;;;;8.93;5.47;;;;;;;12.90;52.37;98590.28;5083384;28;20052;-86
2021/01/23 11:36:47;;;;;;;10.30;6.47;;;;;;;13.16;52.02;98599.03;5078718;28;20107;-84